Terminal Aerodrome Forecast
Issued by NWS

Home | Current Version | Previous Version | Text Only | Print | Product List | Glossary On
Versions: 1 2 3 4 5 6 7 8 9 10 11 12 13
000
FTUS45 KREV 232321
TAFCXP
TAF
KCXP 232321Z 2400/2424 29008KT P6SM FEW080 SCT200
     FM240200 VRB04KT P6SM SCT100 BKN180
     FM241700 20010KT P6SM VCSH SCT050 BKN100
     FM242200 20014G24KT P6SM -SHRA BKN040 OVC070=

USA.gov is the U.S. government's official web portal to all federal, state and local government web resources and services.